sensor_id;sensor_type;location;lat;lon;timestamp;temperature;humidity
5689;DHT22;2869;50.432;8.680;2022-07-23T00:00:59;19.70;99.90
5689;DHT22;2869;50.432;8.680;2022-07-23T00:03:25;19.60;99.90
5689;DHT22;2869;50.432;8.680;2022-07-23T00:05:52;19.50;99.90
5689;DHT22;2869;50.432;8.680;2022-07-23T00:08:19;19.40;99.90
5689;DHT22;2869;50.432;8.680;2022-07-23T00:10:46;19.40;99.90
5689;DHT22;2869;50.432;8.680;2022-07-23T00:13:12;19.30;99.90
5689;DHT22;2869;50.432;8.680;2022-07-23T00:15:39;19.20;99.90
5689;DHT22;2869;50.432;8.680;2022-07-23T00:18:07;19.10;99.90
5689;DHT22;2869;50.432;8.680;2022-07-23T00:20:34;19.00;99.90
5689;DHT22;2869;50.432;8.680;2022-07-23T00:23:00;19.00;99.90
5689;DHT22;2869;50.432;8.680;2022-07-23T00:25:27;18.90;99.90
5689;DHT22;2869;50.432;8.680;2022-07-23T00:27:54;18.80;99.90
5689;DHT22;2869;50.432;8.680;2022-07-23T00:30:20;18.70;99.90
5689;DHT22;2869;50.432;8.680;2022-07-23T00:32:48;18.70;99.90
5689;DHT22;2869;50.432;8.680;2022-07-23T00:35:18;18.50;99.90
5689;DHT22;2869;50.432;8.680;2022-07-23T00:37:45;18.50;99.90
5689;DHT22;2869;50.432;8.680;2022-07-23T00:40:12;18.40;99.90
5689;DHT22;2869;50.432;8.680;2022-07-23T00:42:39;18.30;99.90
5689;DHT22;2869;50.432;8.680;2022-07-23T00:45:07;18.30;99.90
5689;DHT22;2869;50.432;8.680;2022-07-23T00:47:34;18.20;99.90
5689;DHT22;2869;50.432;8.680;2022-07-23T00:50:01;18.20;99.90
5689;DHT22;2869;50.432;8.680;2022-07-23T00:52:29;18.20;99.90
5689;DHT22;2869;50.432;8.680;2022-07-23T00:54:56;18.20;99.90
5689;DHT22;2869;50.432;8.680;2022-07-23T00:57:23;18.10;99.90
5689;DHT22;2869;50.432;8.680;2022-07-23T00:59:50;18.20;99.90
5689;DHT22;2869;50.432;8.680;2022-07-23T01:02:16;18.10;99.90
5689;DHT22;2869;50.432;8.680;2022-07-23T01:04:43;18.10;99.90
5689;DHT22;2869;50.432;8.680;2022-07-23T01:07:10;18.20;99.90
5689;DHT22;2869;50.432;8.680;2022-07-23T01:09:38;18.10;99.90
5689;DHT22;2869;50.432;8.680;2022-07-23T01:12:06;18.10;99.90
5689;DHT22;2869;50.432;8.680;2022-07-23T01:14:33;18.10;99.90
5689;DHT22;2869;50.432;8.680;2022-07-23T01:16:59;18.20;99.90
5689;DHT22;2869;50.432;8.680;2022-07-23T01:19:26;18.10;99.90
5689;DHT22;2869;50.432;8.680;2022-07-23T01:21:53;18.10;99.90
5689;DHT22;2869;50.432;8.680;2022-07-23T01:24:23;18.10;99.90
5689;DHT22;2869;50.432;8.680;2022-07-23T01:26:50;18.10;99.90
5689;DHT22;2869;50.432;8.680;2022-07-23T01:29:17;18.10;99.90
5689;DHT22;2869;50.432;8.680;2022-07-23T01:31:44;18.10;99.90
5689;DHT22;2869;50.432;8.680;2022-07-23T01:34:11;18.10;99.90
5689;DHT22;2869;50.432;8.680;2022-07-23T01:36:38;18.10;99.90
5689;DHT22;2869;50.432;8.680;2022-07-23T01:39:06;18.00;99.90
5689;DHT22;2869;50.432;8.680;2022-07-23T01:41:34;18.00;99.90
5689;DHT22;2869;50.432;8.680;2022-07-23T01:44:01;18.00;99.90
5689;DHT22;2869;50.432;8.680;2022-07-23T01:46:27;18.00;99.90
5689;DHT22;2869;50.432;8.680;2022-07-23T01:48:54;18.00;99.90
5689;DHT22;2869;50.432;8.680;2022-07-23T01:51:21;18.00;99.90
5689;DHT22;2869;50.432;8.680;2022-07-23T01:53:47;18.00;99.90
5689;DHT22;2869;50.432;8.680;2022-07-23T01:56:14;18.00;99.90
5689;DHT22;2869;50.432;8.680;2022-07-23T01:58:42;18.00;99.90
5689;DHT22;2869;50.432;8.680;2022-07-23T02:01:09;17.90;99.90
5689;DHT22;2869;50.432;8.680;2022-07-23T02:03:36;17.90;99.90
5689;DHT22;2869;50.432;8.680;2022-07-23T02:06:02;17.90;99.90
5689;DHT22;2869;50.432;8.680;2022-07-23T02:08:29;17.90;99.90
5689;DHT22;2869;50.432;8.680;2022-07-23T02:10:56;17.90;99.90
5689;DHT22;2869;50.432;8.680;2022-07-23T02:13:22;17.80;99.90
5689;DHT22;2869;50.432;8.680;2022-07-23T02:15:50;17.80;99.90
5689;DHT22;2869;50.432;8.680;2022-07-23T02:18:17;17.80;99.90
5689;DHT22;2869;50.432;8.680;2022-07-23T02:20:44;17.80;99.90
5689;DHT22;2869;50.432;8.680;2022-07-23T02:23:10;17.80;99.90
5689;DHT22;2869;50.432;8.680;2022-07-23T02:25:37;17.70;99.90
5689;DHT22;2869;50.432;8.680;2022-07-23T02:28:04;17.70;99.90
5689;DHT22;2869;50.432;8.680;2022-07-23T02:30:30;17.60;99.90
5689;DHT22;2869;50.432;8.680;2022-07-23T02:32:58;17.60;99.90
5689;DHT22;2869;50.432;8.680;2022-07-23T02:35:25;17.50;99.90
5689;DHT22;2869;50.432;8.680;2022-07-23T02:37:52;17.50;99.90
5689;DHT22;2869;50.432;8.680;2022-07-23T02:40:18;17.40;99.90
5689;DHT22;2869;50.432;8.680;2022-07-23T02:42:45;17.40;99.90
5689;DHT22;2869;50.432;8.680;2022-07-23T02:45:12;17.40;99.90
5689;DHT22;2869;50.432;8.680;2022-07-23T02:47:39;17.40;99.90
5689;DHT22;2869;50.432;8.680;2022-07-23T02:50:08;17.40;99.90
5689;DHT22;2869;50.432;8.680;2022-07-23T02:52:34;17.40;99.90
5689;DHT22;2869;50.432;8.680;2022-07-23T02:55:01;17.40;99.90
5689;DHT22;2869;50.432;8.680;2022-07-23T02:57:28;17.30;99.90
5689;DHT22;2869;50.432;8.680;2022-07-23T02:59:55;17.30;99.90
5689;DHT22;2869;50.432;8.680;2022-07-23T03:02:21;17.30;99.90
5689;DHT22;2869;50.432;8.680;2022-07-23T03:04:48;17.30;99.90
5689;DHT22;2869;50.432;8.680;2022-07-23T03:07:17;17.30;99.90
5689;DHT22;2869;50.432;8.680;2022-07-23T03:09:43;17.30;99.90
5689;DHT22;2869;50.432;8.680;2022-07-23T03:12:10;17.30;99.90
5689;DHT22;2869;50.432;8.680;2022-07-23T03:14:37;17.30;99.90
5689;DHT22;2869;50.432;8.680;2022-07-23T03:17:03;17.30;99.90
5689;DHT22;2869;50.432;8.680;2022-07-23T03:19:30;17.30;99.90
5689;DHT22;2869;50.432;8.680;2022-07-23T03:21:57;17.30;99.90
5689;DHT22;2869;50.432;8.680;2022-07-23T03:24:25;17.30;99.90
5689;DHT22;2869;50.432;8.680;2022-07-23T03:27:11;17.30;99.90
5689;DHT22;2869;50.432;8.680;2022-07-23T03:29:38;17.30;99.90
5689;DHT22;2869;50.432;8.680;2022-07-23T03:32:05;17.30;99.90
5689;DHT22;2869;50.432;8.680;2022-07-23T03:34:32;17.30;99.90
5689;DHT22;2869;50.432;8.680;2022-07-23T03:36:59;17.30;99.90
5689;DHT22;2869;50.432;8.680;2022-07-23T03:39:27;17.30;99.90
5689;DHT22;2869;50.432;8.680;2022-07-23T03:41:54;17.30;99.90
5689;DHT22;2869;50.432;8.680;2022-07-23T03:44:20;17.30;99.90
5689;DHT22;2869;50.432;8.680;2022-07-23T03:46:47;17.30;99.90
5689;DHT22;2869;50.432;8.680;2022-07-23T03:49:14;17.30;99.90
5689;DHT22;2869;50.432;8.680;2022-07-23T03:51:40;17.30;99.90
5689;DHT22;2869;50.432;8.680;2022-07-23T03:54:07;17.30;99.90
5689;DHT22;2869;50.432;8.680;2022-07-23T03:56:35;17.30;99.90
5689;DHT22;2869;50.432;8.680;2022-07-23T03:59:02;17.30;99.90
5689;DHT22;2869;50.432;8.680;2022-07-23T04:01:29;17.30;99.90
5689;DHT22;2869;50.432;8.680;2022-07-23T04:03:56;17.30;99.90
5689;DHT22;2869;50.432;8.680;2022-07-23T04:06:22;17.30;99.90
5689;DHT22;2869;50.432;8.680;2022-07-23T04:08:49;17.30;99.90
5689;DHT22;2869;50.432;8.680;2022-07-23T04:11:16;17.30;99.90
5689;DHT22;2869;50.432;8.680;2022-07-23T04:13:44;17.30;99.90
5689;DHT22;2869;50.432;8.680;2022-07-23T04:16:11;17.30;99.90
5689;DHT22;2869;50.432;8.680;2022-07-23T04:18:37;17.30;99.90
5689;DHT22;2869;50.432;8.680;2022-07-23T04:21:04;17.30;99.90
5689;DHT22;2869;50.432;8.680;2022-07-23T04:23:31;17.30;99.90
5689;DHT22;2869;50.432;8.680;2022-07-23T04:25:57;17.20;99.90
5689;DHT22;2869;50.432;8.680;2022-07-23T04:28:24;17.20;99.90
5689;DHT22;2869;50.432;8.680;2022-07-23T04:30:52;17.20;99.90
5689;DHT22;2869;50.432;8.680;2022-07-23T04:33:19;17.20;99.90
5689;DHT22;2869;50.432;8.680;2022-07-23T04:35:45;17.30;99.90
5689;DHT22;2869;50.432;8.680;2022-07-23T04:38:12;17.30;99.90
5689;DHT22;2869;50.432;8.680;2022-07-23T04:40:39;17.30;99.90
5689;DHT22;2869;50.432;8.680;2022-07-23T04:43:05;17.40;99.90
5689;DHT22;2869;50.432;8.680;2022-07-23T04:45:32;17.40;99.90
5689;DHT22;2869;50.432;8.680;2022-07-23T04:48:00;17.40;99.90
5689;DHT22;2869;50.432;8.680;2022-07-23T04:50:27;17.50;99.90
5689;DHT22;2869;50.432;8.680;2022-07-23T04:52:53;17.50;99.90
5689;DHT22;2869;50.432;8.680;2022-07-23T04:55:20;17.50;99.90
5689;DHT22;2869;50.432;8.680;2022-07-23T04:57:46;17.60;99.90
5689;DHT22;2869;50.432;8.680;2022-07-23T05:00:14;17.60;99.90
5689;DHT22;2869;50.432;8.680;2022-07-23T05:02:41;17.60;99.90
5689;DHT22;2869;50.432;8.680;2022-07-23T05:05:09;17.60;99.90
5689;DHT22;2869;50.432;8.680;2022-07-23T05:07:35;17.70;99.90
5689;DHT22;2869;50.432;8.680;2022-07-23T05:10:02;17.80;99.90
5689;DHT22;2869;50.432;8.680;2022-07-23T05:12:29;17.80;99.90
5689;DHT22;2869;50.432;8.680;2022-07-23T05:14:56;17.90;99.90
5689;DHT22;2869;50.432;8.680;2022-07-23T05:17:22;18.00;99.90
5689;DHT22;2869;50.432;8.680;2022-07-23T05:19:49;18.10;99.90
5689;DHT22;2869;50.432;8.680;2022-07-23T05:22:17;18.20;99.90
5689;DHT22;2869;50.432;8.680;2022-07-23T05:24:44;18.30;99.90
5689;DHT22;2869;50.432;8.680;2022-07-23T05:27:10;18.40;99.90
5689;DHT22;2869;50.432;8.680;2022-07-23T05:29:37;18.50;99.90
5689;DHT22;2869;50.432;8.680;2022-07-23T05:32:04;18.60;99.90
5689;DHT22;2869;50.432;8.680;2022-07-23T05:34:31;18.70;99.90
5689;DHT22;2869;50.432;8.680;2022-07-23T05:36:58;19.00;99.90
5689;DHT22;2869;50.432;8.680;2022-07-23T05:39:26;19.20;99.90
5689;DHT22;2869;50.432;8.680;2022-07-23T05:41:52;19.30;99.90
5689;DHT22;2869;50.432;8.680;2022-07-23T05:44:19;19.50;99.90
5689;DHT22;2869;50.432;8.680;2022-07-23T05:46:47;19.60;99.90
5689;DHT22;2869;50.432;8.680;2022-07-23T05:49:14;19.80;99.90
5689;DHT22;2869;50.432;8.680;2022-07-23T05:51:40;19.90;99.90
5689;DHT22;2869;50.432;8.680;2022-07-23T05:54:07;20.10;99.90
5689;DHT22;2869;50.432;8.680;2022-07-23T05:56:35;20.10;99.90
5689;DHT22;2869;50.432;8.680;2022-07-23T05:59:02;20.20;99.90
5689;DHT22;2869;50.432;8.680;2022-07-23T06:01:29;20.40;99.90
5689;DHT22;2869;50.432;8.680;2022-07-23T06:03:55;20.60;99.90
5689;DHT22;2869;50.432;8.680;2022-07-23T06:06:22;20.60;99.90
5689;DHT22;2869;50.432;8.680;2022-07-23T06:08:48;20.60;99.90
5689;DHT22;2869;50.432;8.680;2022-07-23T06:11:15;20.80;99.90
5689;DHT22;2869;50.432;8.680;2022-07-23T06:13:43;20.80;99.90
5689;DHT22;2869;50.432;8.680;2022-07-23T06:16:10;21.00;99.90
5689;DHT22;2869;50.432;8.680;2022-07-23T06:18:36;21.00;99.90
5689;DHT22;2869;50.432;8.680;2022-07-23T06:21:03;21.10;99.90
5689;DHT22;2869;50.432;8.680;2022-07-23T06:23:30;21.20;99.90
5689;DHT22;2869;50.432;8.680;2022-07-23T06:25:57;21.40;99.90
5689;DHT22;2869;50.432;8.680;2022-07-23T06:28:23;21.60;99.90
5689;DHT22;2869;50.432;8.680;2022-07-23T06:30:51;21.70;99.90
5689;DHT22;2869;50.432;8.680;2022-07-23T06:33:18;21.90;99.90
5689;DHT22;2869;50.432;8.680;2022-07-23T06:35:44;22.10;99.90
5689;DHT22;2869;50.432;8.680;2022-07-23T06:38:11;22.30;99.90
5689;DHT22;2869;50.432;8.680;2022-07-23T06:40:38;22.40;99.90
5689;DHT22;2869;50.432;8.680;2022-07-23T06:43:05;22.40;99.90
5689;DHT22;2869;50.432;8.680;2022-07-23T06:45:31;22.50;99.90
5689;DHT22;2869;50.432;8.680;2022-07-23T06:47:59;22.60;99.90
5689;DHT22;2869;50.432;8.680;2022-07-23T06:50:27;22.60;99.90
5689;DHT22;2869;50.432;8.680;2022-07-23T06:52:54;22.70;99.90
5689;DHT22;2869;50.432;8.680;2022-07-23T06:55:21;22.80;99.90
5689;DHT22;2869;50.432;8.680;2022-07-23T06:57:47;22.90;99.90
5689;DHT22;2869;50.432;8.680;2022-07-23T07:00:14;23.00;99.90
5689;DHT22;2869;50.432;8.680;2022-07-23T07:02:41;23.10;99.90
5689;DHT22;2869;50.432;8.680;2022-07-23T07:05:09;23.10;99.90
5689;DHT22;2869;50.432;8.680;2022-07-23T07:07:35;23.20;99.90
5689;DHT22;2869;50.432;8.680;2022-07-23T07:10:02;23.20;99.90
5689;DHT22;2869;50.432;8.680;2022-07-23T07:12:29;23.40;99.90
5689;DHT22;2869;50.432;8.680;2022-07-23T07:14:56;23.50;99.90
5689;DHT22;2869;50.432;8.680;2022-07-23T07:17:23;23.60;99.90
5689;DHT22;2869;50.432;8.680;2022-07-23T07:19:49;23.70;99.90
5689;DHT22;2869;50.432;8.680;2022-07-23T07:22:17;23.70;99.90
5689;DHT22;2869;50.432;8.680;2022-07-23T07:24:44;23.80;99.90
5689;DHT22;2869;50.432;8.680;2022-07-23T07:27:11;23.80;99.90
5689;DHT22;2869;50.432;8.680;2022-07-23T07:29:37;23.70;99.90
5689;DHT22;2869;50.432;8.680;2022-07-23T07:32:05;23.40;99.90
5689;DHT22;2869;50.432;8.680;2022-07-23T07:34:32;23.20;99.90
5689;DHT22;2869;50.432;8.680;2022-07-23T07:36:59;23.10;99.90
5689;DHT22;2869;50.432;8.680;2022-07-23T07:39:27;23.10;99.90
5689;DHT22;2869;50.432;8.680;2022-07-23T07:41:53;23.00;99.90
5689;DHT22;2869;50.432;8.680;2022-07-23T07:44:20;23.10;99.90
5689;DHT22;2869;50.432;8.680;2022-07-23T07:46:47;22.90;99.90
5689;DHT22;2869;50.432;8.680;2022-07-23T07:49:13;22.90;99.90
5689;DHT22;2869;50.432;8.680;2022-07-23T07:51:42;22.90;99.90
5689;DHT22;2869;50.432;8.680;2022-07-23T07:54:09;22.90;99.90
5689;DHT22;2869;50.432;8.680;2022-07-23T07:56:37;22.90;99.90
5689;DHT22;2869;50.432;8.680;2022-07-23T07:59:04;22.90;99.90
5689;DHT22;2869;50.432;8.680;2022-07-23T08:01:31;22.80;99.90
5689;DHT22;2869;50.432;8.680;2022-07-23T08:03:58;22.80;99.90
5689;DHT22;2869;50.432;8.680;2022-07-23T08:06:24;23.00;99.90
5689;DHT22;2869;50.432;8.680;2022-07-23T08:08:51;23.00;99.90
5689;DHT22;2869;50.432;8.680;2022-07-23T08:11:18;23.30;99.90
5689;DHT22;2869;50.432;8.680;2022-07-23T08:13:46;23.70;99.90
5689;DHT22;2869;50.432;8.680;2022-07-23T08:16:12;24.20;99.90
5689;DHT22;2869;50.432;8.680;2022-07-23T08:18:39;24.60;99.90
5689;DHT22;2869;50.432;8.680;2022-07-23T08:21:06;24.90;99.90
5689;DHT22;2869;50.432;8.680;2022-07-23T08:23:33;25.10;99.90
5689;DHT22;2869;50.432;8.680;2022-07-23T08:26:00;25.30;99.90
5689;DHT22;2869;50.432;8.680;2022-07-23T08:28:26;25.30;99.90
5689;DHT22;2869;50.432;8.680;2022-07-23T08:30:55;25.60;99.90
5689;DHT22;2869;50.432;8.680;2022-07-23T08:33:21;25.70;99.90
5689;DHT22;2869;50.432;8.680;2022-07-23T08:35:49;25.90;99.90
5689;DHT22;2869;50.432;8.680;2022-07-23T08:38:19;25.90;99.90
5689;DHT22;2869;50.432;8.680;2022-07-23T08:40:49;25.90;99.90
5689;DHT22;2869;50.432;8.680;2022-07-23T08:43:17;25.80;99.90
5689;DHT22;2869;50.432;8.680;2022-07-23T08:45:47;25.40;99.90
5689;DHT22;2869;50.432;8.680;2022-07-23T08:48:17;25.40;99.90
5689;DHT22;2869;50.432;8.680;2022-07-23T08:50:45;25.70;99.90
5689;DHT22;2869;50.432;8.680;2022-07-23T08:53:12;26.00;99.90
5689;DHT22;2869;50.432;8.680;2022-07-23T08:55:40;26.20;99.90
5689;DHT22;2869;50.432;8.680;2022-07-23T08:58:09;26.40;99.90
5689;DHT22;2869;50.432;8.680;2022-07-23T09:00:36;26.60;99.90
5689;DHT22;2869;50.432;8.680;2022-07-23T09:03:03;26.80;99.90
5689;DHT22;2869;50.432;8.680;2022-07-23T09:05:31;27.00;99.90
5689;DHT22;2869;50.432;8.680;2022-07-23T09:08:09;27.20;99.90
5689;DHT22;2869;50.432;8.680;2022-07-23T09:10:47;27.30;99.90
5689;DHT22;2869;50.432;8.680;2022-07-23T09:13:39;27.30;99.90
5689;DHT22;2869;50.432;8.680;2022-07-23T09:16:10;27.30;99.90
5689;DHT22;2869;50.432;8.680;2022-07-23T09:18:40;27.10;99.90
5689;DHT22;2869;50.432;8.680;2022-07-23T09:21:13;27.10;99.90
5689;DHT22;2869;50.432;8.680;2022-07-23T09:23:42;27.00;99.90
5689;DHT22;2869;50.432;8.680;2022-07-23T09:26:27;26.90;99.90
5689;DHT22;2869;50.432;8.680;2022-07-23T09:28:58;26.90;99.90
5689;DHT22;2869;50.432;8.680;2022-07-23T09:31:27;27.10;99.90
5689;DHT22;2869;50.432;8.680;2022-07-23T09:34:07;27.40;99.90
5689;DHT22;2869;50.432;8.680;2022-07-23T09:36:35;27.80;99.90
5689;DHT22;2869;50.432;8.680;2022-07-23T09:39:02;28.00;99.90
5689;DHT22;2869;50.432;8.680;2022-07-23T09:41:35;28.30;99.90
5689;DHT22;2869;50.432;8.680;2022-07-23T09:44:07;28.30;99.90
5689;DHT22;2869;50.432;8.680;2022-07-23T09:46:34;28.40;99.90
5689;DHT22;2869;50.432;8.680;2022-07-23T09:49:11;28.30;99.90
5689;DHT22;2869;50.432;8.680;2022-07-23T09:51:45;28.30;99.90
5689;DHT22;2869;50.432;8.680;2022-07-23T09:54:21;28.40;99.90
5689;DHT22;2869;50.432;8.680;2022-07-23T09:56:48;28.40;99.90
5689;DHT22;2869;50.432;8.680;2022-07-23T09:59:16;28.40;99.90
5689;DHT22;2869;50.432;8.680;2022-07-23T10:01:44;28.50;99.90
5689;DHT22;2869;50.432;8.680;2022-07-23T10:04:11;28.70;99.90
5689;DHT22;2869;50.432;8.680;2022-07-23T10:06:39;28.70;99.90
5689;DHT22;2869;50.432;8.680;2022-07-23T10:09:08;28.70;99.90
5689;DHT22;2869;50.432;8.680;2022-07-23T10:11:38;28.50;99.90
5689;DHT22;2869;50.432;8.680;2022-07-23T10:14:05;28.60;99.90
5689;DHT22;2869;50.432;8.680;2022-07-23T10:16:32;28.90;99.90
5689;DHT22;2869;50.432;8.680;2022-07-23T10:18:59;28.80;99.90
5689;DHT22;2869;50.432;8.680;2022-07-23T10:21:34;28.70;99.90
5689;DHT22;2869;50.432;8.680;2022-07-23T10:24:12;28.60;99.90
5689;DHT22;2869;50.432;8.680;2022-07-23T10:26:47;28.70;99.90
5689;DHT22;2869;50.432;8.680;2022-07-23T10:29:27;28.90;99.90
5689;DHT22;2869;50.432;8.680;2022-07-23T10:32:00;29.10;99.90
5689;DHT22;2869;50.432;8.680;2022-07-23T10:34:39;29.30;99.90
5689;DHT22;2869;50.432;8.680;2022-07-23T10:37:12;29.20;99.90
5689;DHT22;2869;50.432;8.680;2022-07-23T10:39:43;29.10;99.90
5689;DHT22;2869;50.432;8.680;2022-07-23T10:42:12;29.20;99.90
5689;DHT22;2869;50.432;8.680;2022-07-23T10:44:41;29.30;99.90
5689;DHT22;2869;50.432;8.680;2022-07-23T10:47:08;29.60;99.90
5689;DHT22;2869;50.432;8.680;2022-07-23T10:50:17;29.70;99.90
5689;DHT22;2869;50.432;8.680;2022-07-23T10:53:08;30.00;99.90
5689;DHT22;2869;50.432;8.680;2022-07-23T10:55:44;30.00;99.90
5689;DHT22;2869;50.432;8.680;2022-07-23T10:58:11;30.10;99.90
5689;DHT22;2869;50.432;8.680;2022-07-23T11:00:43;30.20;99.90
5689;DHT22;2869;50.432;8.680;2022-07-23T11:03:29;30.30;99.90
5689;DHT22;2869;50.432;8.680;2022-07-23T11:05:57;29.70;99.90
5689;DHT22;2869;50.432;8.680;2022-07-23T11:08:24;29.80;99.90
5689;DHT22;2869;50.432;8.680;2022-07-23T11:11:08;29.90;99.90
5689;DHT22;2869;50.432;8.680;2022-07-23T11:13:47;30.00;99.90
5689;DHT22;2869;50.432;8.680;2022-07-23T11:16:16;30.10;99.90
5689;DHT22;2869;50.432;8.680;2022-07-23T11:21:50;29.80;99.90
5689;DHT22;2869;50.432;8.680;2022-07-23T11:24:19;29.70;99.90
5689;DHT22;2869;50.432;8.680;2022-07-23T11:26:55;29.50;99.90
5689;DHT22;2869;50.432;8.680;2022-07-23T11:29:42;29.60;99.90
5689;DHT22;2869;50.432;8.680;2022-07-23T11:32:27;29.90;99.90
5689;DHT22;2869;50.432;8.680;2022-07-23T11:34:55;30.20;99.90
5689;DHT22;2869;50.432;8.680;2022-07-23T11:37:42;30.50;99.90
5689;DHT22;2869;50.432;8.680;2022-07-23T11:40:13;30.70;99.90
5689;DHT22;2869;50.432;8.680;2022-07-23T11:42:56;30.40;99.90
5689;DHT22;2869;50.432;8.680;2022-07-23T11:45:23;30.30;99.90
5689;DHT22;2869;50.432;8.680;2022-07-23T11:47:50;30.10;99.90
5689;DHT22;2869;50.432;8.680;2022-07-23T11:50:17;29.90;99.90
5689;DHT22;2869;50.432;8.680;2022-07-23T11:52:44;30.10;99.90
5689;DHT22;2869;50.432;8.680;2022-07-23T11:55:11;30.20;99.90
5689;DHT22;2869;50.432;8.680;2022-07-23T11:57:42;30.50;99.90
5689;DHT22;2869;50.432;8.680;2022-07-23T12:00:11;30.80;99.90
5689;DHT22;2869;50.432;8.680;2022-07-23T12:02:39;30.90;99.90
5689;DHT22;2869;50.432;8.680;2022-07-23T12:05:08;31.00;99.90
5689;DHT22;2869;50.432;8.680;2022-07-23T12:07:38;31.20;99.90
5689;DHT22;2869;50.432;8.680;2022-07-23T12:10:10;31.20;99.90
5689;DHT22;2869;50.432;8.680;2022-07-23T12:12:37;30.80;99.90
5689;DHT22;2869;50.432;8.680;2022-07-23T12:15:08;30.50;99.90
5689;DHT22;2869;50.432;8.680;2022-07-23T12:17:36;30.20;99.90
5689;DHT22;2869;50.432;8.680;2022-07-23T12:20:06;30.00;99.90
5689;DHT22;2869;50.432;8.680;2022-07-23T12:22:35;29.80;99.90
5689;DHT22;2869;50.432;8.680;2022-07-23T12:25:06;29.60;99.90
5689;DHT22;2869;50.432;8.680;2022-07-23T12:27:33;29.50;99.90
5689;DHT22;2869;50.432;8.680;2022-07-23T12:30:16;29.50;99.90
5689;DHT22;2869;50.432;8.680;2022-07-23T12:32:44;29.60;99.90
5689;DHT22;2869;50.432;8.680;2022-07-23T12:35:12;29.70;99.90
5689;DHT22;2869;50.432;8.680;2022-07-23T12:37:41;29.90;99.90
5689;DHT22;2869;50.432;8.680;2022-07-23T12:40:29;30.20;99.90
5689;DHT22;2869;50.432;8.680;2022-07-23T12:42:58;30.10;99.90
5689;DHT22;2869;50.432;8.680;2022-07-23T12:45:27;29.70;99.90
5689;DHT22;2869;50.432;8.680;2022-07-23T12:48:03;29.30;99.90
5689;DHT22;2869;50.432;8.680;2022-07-23T12:50:39;29.10;99.90
5689;DHT22;2869;50.432;8.680;2022-07-23T12:53:08;29.40;99.90
5689;DHT22;2869;50.432;8.680;2022-07-23T12:55:36;29.60;99.90
5689;DHT22;2869;50.432;8.680;2022-07-23T12:58:21;29.90;99.90
5689;DHT22;2869;50.432;8.680;2022-07-23T13:00:54;29.90;99.90
5689;DHT22;2869;50.432;8.680;2022-07-23T13:03:27;29.90;99.90
5689;DHT22;2869;50.432;8.680;2022-07-23T13:05:54;30.10;99.90
5689;DHT22;2869;50.432;8.680;2022-07-23T13:08:24;30.10;99.90
5689;DHT22;2869;50.432;8.680;2022-07-23T13:10:50;30.00;99.90
5689;DHT22;2869;50.432;8.680;2022-07-23T13:13:20;30.00;99.90
5689;DHT22;2869;50.432;8.680;2022-07-23T13:15:48;30.00;99.90
5689;DHT22;2869;50.432;8.680;2022-07-23T13:18:16;30.10;99.90
5689;DHT22;2869;50.432;8.680;2022-07-23T13:20:43;29.90;99.90
5689;DHT22;2869;50.432;8.680;2022-07-23T13:23:10;29.80;99.90
5689;DHT22;2869;50.432;8.680;2022-07-23T13:25:37;29.90;99.90
5689;DHT22;2869;50.432;8.680;2022-07-23T13:28:04;29.90;99.90
5689;DHT22;2869;50.432;8.680;2022-07-23T13:30:30;29.80;99.90
5689;DHT22;2869;50.432;8.680;2022-07-23T13:32:57;29.60;99.90
5689;DHT22;2869;50.432;8.680;2022-07-23T13:35:25;29.20;99.90
5689;DHT22;2869;50.432;8.680;2022-07-23T13:37:52;29.10;99.90
5689;DHT22;2869;50.432;8.680;2022-07-23T13:40:18;28.80;99.90
5689;DHT22;2869;50.432;8.680;2022-07-23T13:42:45;28.70;99.90
5689;DHT22;2869;50.432;8.680;2022-07-23T13:45:12;29.00;99.90
5689;DHT22;2869;50.432;8.680;2022-07-23T13:47:39;29.10;99.30
5689;DHT22;2869;50.432;8.680;2022-07-23T13:50:06;29.10;99.90
5689;DHT22;2869;50.432;8.680;2022-07-23T13:52:34;29.30;99.90
5689;DHT22;2869;50.432;8.680;2022-07-23T13:55:01;29.40;99.10
5689;DHT22;2869;50.432;8.680;2022-07-23T13:57:29;29.80;99.50
5689;DHT22;2869;50.432;8.680;2022-07-23T13:59:55;30.20;99.90
5689;DHT22;2869;50.432;8.680;2022-07-23T14:02:22;30.50;97.20
5689;DHT22;2869;50.432;8.680;2022-07-23T14:04:49;30.70;96.80
5689;DHT22;2869;50.432;8.680;2022-07-23T14:07:16;30.70;97.00
5689;DHT22;2869;50.432;8.680;2022-07-23T14:09:44;30.80;96.80
5689;DHT22;2869;50.432;8.680;2022-07-23T14:12:11;30.90;96.10
5689;DHT22;2869;50.432;8.680;2022-07-23T14:14:38;30.60;96.10
5689;DHT22;2869;50.432;8.680;2022-07-23T14:17:05;30.50;96.90
5689;DHT22;2869;50.432;8.680;2022-07-23T14:19:31;30.50;96.40
5689;DHT22;2869;50.432;8.680;2022-07-23T14:21:58;30.40;96.20
5689;DHT22;2869;50.432;8.680;2022-07-23T14:24:25;30.20;96.10
5689;DHT22;2869;50.432;8.680;2022-07-23T14:26:53;30.20;96.90
5689;DHT22;2869;50.432;8.680;2022-07-23T14:29:19;30.20;96.50
5689;DHT22;2869;50.432;8.680;2022-07-23T14:31:46;30.00;96.10
5689;DHT22;2869;50.432;8.680;2022-07-23T14:34:14;30.00;96.40
5689;DHT22;2869;50.432;8.680;2022-07-23T14:36:40;30.30;96.00
5689;DHT22;2869;50.432;8.680;2022-07-23T14:39:07;30.60;95.80
5689;DHT22;2869;50.432;8.680;2022-07-23T14:41:34;30.80;96.10
5689;DHT22;2869;50.432;8.680;2022-07-23T14:44:03;31.00;95.60
5689;DHT22;2869;50.432;8.680;2022-07-23T14:46:30;31.20;94.40
5689;DHT22;2869;50.432;8.680;2022-07-23T14:48:57;31.20;93.90
5689;DHT22;2869;50.432;8.680;2022-07-23T14:51:23;31.00;94.10
5689;DHT22;2869;50.432;8.680;2022-07-23T14:53:50;30.80;94.70
5689;DHT22;2869;50.432;8.680;2022-07-23T14:56:17;30.60;94.90
5689;DHT22;2869;50.432;8.680;2022-07-23T14:58:43;30.50;94.90
5689;DHT22;2869;50.432;8.680;2022-07-23T15:01:12;30.50;95.10
5689;DHT22;2869;50.432;8.680;2022-07-23T15:03:38;30.40;94.90
5689;DHT22;2869;50.432;8.680;2022-07-23T15:06:05;30.30;94.80
5689;DHT22;2869;50.432;8.680;2022-07-23T15:08:32;30.20;94.20
5689;DHT22;2869;50.432;8.680;2022-07-23T15:10:59;29.90;94.50
5689;DHT22;2869;50.432;8.680;2022-07-23T15:13:26;29.80;94.60
5689;DHT22;2869;50.432;8.680;2022-07-23T15:15:52;29.80;94.80
5689;DHT22;2869;50.432;8.680;2022-07-23T15:18:20;29.90;98.50
5689;DHT22;2869;50.432;8.680;2022-07-23T15:20:47;29.80;99.90
5689;DHT22;2869;50.432;8.680;2022-07-23T15:23:14;29.60;99.90
5689;DHT22;2869;50.432;8.680;2022-07-23T15:25:41;29.40;99.90
5689;DHT22;2869;50.432;8.680;2022-07-23T15:28:07;29.20;99.30
5689;DHT22;2869;50.432;8.680;2022-07-23T15:30:34;29.20;99.90
5689;DHT22;2869;50.432;8.680;2022-07-23T15:33:02;29.20;99.90
5689;DHT22;2869;50.432;8.680;2022-07-23T15:35:30;29.30;99.90
5689;DHT22;2869;50.432;8.680;2022-07-23T15:37:57;29.20;99.90
5689;DHT22;2869;50.432;8.680;2022-07-23T15:40:24;29.00;99.90
5689;DHT22;2869;50.432;8.680;2022-07-23T15:42:51;28.80;99.70
5689;DHT22;2869;50.432;8.680;2022-07-23T15:45:18;28.80;99.10
5689;DHT22;2869;50.432;8.680;2022-07-23T15:47:46;28.80;98.10
5689;DHT22;2869;50.432;8.680;2022-07-23T15:50:13;28.60;97.00
5689;DHT22;2869;50.432;8.680;2022-07-23T15:52:41;28.40;96.80
5689;DHT22;2869;50.432;8.680;2022-07-23T15:55:08;28.40;96.80
5689;DHT22;2869;50.432;8.680;2022-07-23T15:57:35;28.40;96.50
5689;DHT22;2869;50.432;8.680;2022-07-23T16:00:03;28.30;96.00
5689;DHT22;2869;50.432;8.680;2022-07-23T16:02:30;28.30;95.40
5689;DHT22;2869;50.432;8.680;2022-07-23T16:04:56;28.40;97.00
5689;DHT22;2869;50.432;8.680;2022-07-23T16:07:23;28.40;97.10
5689;DHT22;2869;50.432;8.680;2022-07-23T16:09:51;28.50;97.70
5689;DHT22;2869;50.432;8.680;2022-07-23T16:12:18;28.60;96.60